createdAt,value
2023-04-24T00:02:12.692Z,44.61
2023-04-24T00:04:42.158Z,44.91
2023-04-24T00:07:09.258Z,44.77
2023-04-24T00:09:36.299Z,45.30
2023-04-24T00:12:05.969Z,44.94
2023-04-24T00:14:33.385Z,44.78
2023-04-24T00:17:03.777Z,45.28
2023-04-24T00:19:30.845Z,44.94
2023-04-24T00:21:57.901Z,44.95
2023-04-24T00:24:24.706Z,45.55
2023-04-24T00:26:51.720Z,45.31
2023-04-24T00:29:18.538Z,45.03
2023-04-24T00:31:45.562Z,45.32
2023-04-24T00:34:13.095Z,45.33
2023-04-24T00:36:40.154Z,45.11
2023-04-24T00:39:07.291Z,45.07
2023-04-24T00:41:34.684Z,45.05
2023-04-24T00:44:01.909Z,45.47
2023-04-24T00:46:29.468Z,45.36
2023-04-24T00:48:57.646Z,45.43
2023-04-24T00:51:26.226Z,45.52
2023-04-24T00:53:53.536Z,45.65
2023-04-24T00:56:21.198Z,45.09
2023-04-24T00:58:51.035Z,45.10
2023-04-24T01:01:19.556Z,45.07
2023-04-24T01:03:47.146Z,45.11
2023-04-24T01:06:17.291Z,45.34
2023-04-24T01:08:44.997Z,45.27
2023-04-24T01:11:11.915Z,45.55
2023-04-24T01:13:38.927Z,45.06
2023-04-24T01:16:06.055Z,45.40
2023-04-24T01:18:33.568Z,45.72
2023-04-24T01:21:01.429Z,45.40
2023-04-24T01:23:28.278Z,45.51
2023-04-24T01:25:55.374Z,45.65
2023-04-24T01:28:22.744Z,45.91
2023-04-24T01:30:49.655Z,45.68
2023-04-24T01:33:16.972Z,46.00
2023-04-24T01:35:44.311Z,46.38
2023-04-24T01:38:11.549Z,46.44
2023-04-24T01:40:38.529Z,46.20
2023-04-24T01:43:05.682Z,46.22
2023-04-24T01:45:32.582Z,46.70
2023-04-24T01:48:00.125Z,46.75
2023-04-24T01:50:27.176Z,46.88
2023-04-24T01:52:54.015Z,46.84
2023-04-24T01:55:21.185Z,47.15
2023-04-24T01:57:48.522Z,46.99
2023-04-24T02:00:15.958Z,47.30
2023-04-24T02:02:45.693Z,47.48
2023-04-24T02:05:14.650Z,47.63
2023-04-24T02:07:44.926Z,47.45
2023-04-24T02:10:12.047Z,47.41
2023-04-24T02:12:39.205Z,47.68
2023-04-24T02:15:06.719Z,47.86
2023-04-24T02:17:33.894Z,47.72
2023-04-24T02:20:00.873Z,47.51
2023-04-24T02:22:27.856Z,47.87
2023-04-24T02:24:54.714Z,47.63
2023-04-24T02:27:23.951Z,47.74
2023-04-24T02:29:51.061Z,47.65
2023-04-24T02:32:18.291Z,47.82
2023-04-24T02:34:45.341Z,47.73
2023-04-24T02:37:12.431Z,47.73
2023-04-24T02:39:39.298Z,47.46
2023-04-24T02:42:09.888Z,47.84
2023-04-24T02:44:36.936Z,47.64
2023-04-24T02:47:04.122Z,47.41
2023-04-24T02:49:31.177Z,47.68
2023-04-24T02:51:58.268Z,47.20
2023-04-24T02:54:25.220Z,47.19
2023-04-24T02:56:52.340Z,47.24
2023-04-24T02:59:19.417Z,47.12
2023-04-24T03:01:46.511Z,47.23
2023-04-24T03:04:13.741Z,47.06
2023-04-24T03:06:41.148Z,47.26
2023-04-24T03:09:08.214Z,47.38
2023-04-24T03:11:35.205Z,47.47
2023-04-24T03:14:02.446Z,47.38
2023-04-24T03:16:29.459Z,47.04
2023-04-24T03:18:56.693Z,46.89
2023-04-24T03:21:24.016Z,47.34
2023-04-24T03:23:51.230Z,47.38
2023-04-24T03:26:18.272Z,47.19
2023-04-24T03:28:45.544Z,47.09
2023-04-24T03:31:12.691Z,47.34
2023-04-24T03:33:39.996Z,47.08
2023-04-24T03:36:07.078Z,47.28
2023-04-24T03:38:34.580Z,47.21
2023-04-24T03:41:01.904Z,47.52
2023-04-24T03:43:29.053Z,47.75
2023-04-24T03:45:56.084Z,47.36
2023-04-24T03:48:23.218Z,47.70
2023-04-24T03:50:50.232Z,47.24
2023-04-24T03:53:17.379Z,47.28
2023-04-24T03:55:44.318Z,47.34
2023-04-24T03:58:12.922Z,47.59
2023-04-24T04:00:41.637Z,47.60
2023-04-24T04:03:08.860Z,48.02
2023-04-24T04:05:36.255Z,47.45
2023-04-24T04:08:03.691Z,47.67
2023-04-24T04:10:30.706Z,47.89
2023-04-24T04:12:57.794Z,47.78
2023-04-24T04:15:24.892Z,48.21
2023-04-24T04:17:52.078Z,47.93
2023-04-24T04:20:19.330Z,48.06
2023-04-24T04:22:49.388Z,48.09
2023-04-24T04:25:16.465Z,48.54
2023-04-24T04:27:43.480Z,48.56
2023-04-24T04:33:28.496Z,48.42
2023-04-24T04:35:58.530Z,48.23
2023-04-24T04:38:25.846Z,48.34
2023-04-24T04:40:53.132Z,48.38
2023-04-24T04:43:20.133Z,48.54
2023-04-24T04:45:47.282Z,48.36
2023-04-24T04:48:15.350Z,48.19
2023-04-24T04:50:42.408Z,47.92
2023-04-24T04:53:09.318Z,48.04
2023-04-24T04:55:36.975Z,48.22
2023-04-24T04:58:04.429Z,48.03
2023-04-24T05:00:36.982Z,48.22
2023-04-24T05:03:19.353Z,48.00
2023-04-24T05:05:47.699Z,48.08
2023-04-24T05:10:44.909Z,47.99
2023-04-24T05:13:14.087Z,48.17
2023-04-24T05:15:41.239Z,48.04
2023-04-24T05:18:08.632Z,48.03
2023-04-24T05:20:35.749Z,48.03
2023-04-24T05:23:03.932Z,48.39
2023-04-24T05:25:33.559Z,48.48
2023-04-24T05:28:00.713Z,47.90
2023-04-24T05:30:28.101Z,47.83
2023-04-24T05:32:55.203Z,48.25
2023-04-24T05:35:22.273Z,47.99
2023-04-24T05:37:52.128Z,47.95
2023-04-24T05:40:19.076Z,47.91
2023-04-24T05:42:46.054Z,47.79
2023-04-24T05:45:18.590Z,48.21
2023-04-24T05:47:45.686Z,47.90
2023-04-24T05:50:13.132Z,48.38
2023-04-24T05:52:40.585Z,48.07
2023-04-24T05:55:08.062Z,48.00
2023-04-24T05:57:35.192Z,48.09
2023-04-24T06:00:02.130Z,48.19
2023-04-24T06:02:34.020Z,48.21
2023-04-24T06:05:01.170Z,47.89
2023-04-24T06:07:28.183Z,48.04
2023-04-24T06:09:55.050Z,48.12
2023-04-24T06:12:22.223Z,48.21
2023-04-24T06:14:49.325Z,47.97
2023-04-24T06:17:16.815Z,47.75
2023-04-24T06:19:43.831Z,48.14
2023-04-24T06:22:11.324Z,48.60
2023-04-24T06:24:38.225Z,43.27
2023-04-24T06:27:05.265Z,42.35
2023-04-24T06:29:32.152Z,42.07
2023-04-24T06:31:59.044Z,42.42
2023-04-24T06:34:25.994Z,42.59
2023-04-24T06:36:55.487Z,43.87
2023-04-24T06:39:22.439Z,44.20
2023-04-24T06:41:49.765Z,44.36
2023-04-24T06:44:16.905Z,44.68
2023-04-24T06:46:43.931Z,44.62
2023-04-24T06:49:11.294Z,44.32
2023-04-24T06:51:38.138Z,44.63
2023-04-24T06:54:05.007Z,44.33
2023-04-24T06:56:32.211Z,44.57
2023-04-24T06:58:59.521Z,44.50
2023-04-24T07:01:26.492Z,44.29
2023-04-24T07:03:53.845Z,44.37
2023-04-24T07:06:23.974Z,44.35
2023-04-24T07:08:51.301Z,44.37
2023-04-24T07:11:18.401Z,44.24
2023-04-24T07:13:45.752Z,44.13
2023-04-24T07:16:12.748Z,43.82
2023-04-24T07:18:41.317Z,43.83
2023-04-24T07:21:08.668Z,43.82
2023-04-24T07:23:35.707Z,43.68
2023-04-24T07:26:02.719Z,43.82
2023-04-24T07:28:32.746Z,44.10
2023-04-24T07:31:01.237Z,44.21
2023-04-24T07:33:28.317Z,43.58
2023-04-24T07:35:55.434Z,43.20
2023-04-24T07:38:23.578Z,43.53
2023-04-24T07:40:50.710Z,43.06
2023-04-24T07:43:17.648Z,43.18
2023-04-24T07:45:44.643Z,42.46
2023-04-24T07:48:11.801Z,42.36
2023-04-24T07:50:38.924Z,42.44
2023-04-24T07:53:05.949Z,42.39
2023-04-24T07:55:32.998Z,42.16
2023-04-24T07:57:59.971Z,42.14
2023-04-24T08:00:27.007Z,41.80
2023-04-24T08:02:54.266Z,42.11
2023-04-24T08:05:21.704Z,41.75
2023-04-24T08:07:51.708Z,41.32
2023-04-24T08:10:18.826Z,41.43
2023-04-24T08:12:45.849Z,41.60
2023-04-24T08:15:12.839Z,41.33
2023-04-24T08:17:42.098Z,41.01
2023-04-24T08:20:14.848Z,40.98
2023-04-24T08:22:42.547Z,41.05
2023-04-24T08:25:09.888Z,40.83
2023-04-24T08:27:38.224Z,40.67
2023-04-24T08:30:05.732Z,40.57
2023-04-24T08:32:32.813Z,40.36
2023-04-24T08:35:00.715Z,40.53
2023-04-24T08:37:28.453Z,40.62
2023-04-24T08:39:55.824Z,40.48
2023-04-24T08:42:23.017Z,40.30
2023-04-24T08:44:51.216Z,40.53
2023-04-24T08:47:18.206Z,40.01
2023-04-24T08:49:46.929Z,40.02
2023-04-24T08:52:16.427Z,40.00
2023-04-24T08:54:44.993Z,40.26
2023-04-24T08:57:12.962Z,40.17
2023-04-24T08:59:40.061Z,40.34
2023-04-24T09:02:08.217Z,40.28
2023-04-24T09:04:36.932Z,39.89
2023-04-24T09:07:05.030Z,39.67
2023-04-24T09:09:34.860Z,39.80
2023-04-24T09:12:02.272Z,39.88
2023-04-24T09:14:29.907Z,39.67
2023-04-24T09:16:56.999Z,39.66
2023-04-24T09:19:24.113Z,40.09
2023-04-24T09:21:54.305Z,39.64
2023-04-24T09:24:24.329Z,39.77
2023-04-24T09:26:59.029Z,40.08
2023-04-24T09:29:26.461Z,40.42
2023-04-24T09:31:53.523Z,40.06
2023-04-24T09:34:26.554Z,39.97
2023-04-24T09:36:53.914Z,40.29
2023-04-24T09:39:21.887Z,40.53
2023-04-24T09:41:50.181Z,40.21
2023-04-24T09:44:18.544Z,40.26
2023-04-24T09:46:46.844Z,40.08
2023-04-24T09:49:15.317Z,40.27
2023-04-24T09:51:42.524Z,40.06
2023-04-24T09:54:15.093Z,40.09
2023-04-24T09:56:43.620Z,40.05
2023-04-24T09:59:10.684Z,40.55
2023-04-24T10:01:40.887Z,40.70
2023-04-24T10:04:08.042Z,40.40
2023-04-24T10:06:35.898Z,40.90
2023-04-24T10:09:03.170Z,40.95
2023-04-24T10:11:31.938Z,40.57
2023-04-24T10:13:59.233Z,40.62
2023-04-24T10:16:29.021Z,40.67
2023-04-24T10:18:56.583Z,40.98
2023-04-24T10:21:24.343Z,40.92
2023-04-24T10:23:52.445Z,41.15
2023-04-24T10:26:20.889Z,40.83
2023-04-24T10:28:48.932Z,41.21
2023-04-24T10:31:16.837Z,41.24
2023-04-24T10:33:44.431Z,40.98
2023-04-24T10:36:12.189Z,41.17
2023-04-24T10:38:42.544Z,40.93
2023-04-24T10:41:12.014Z,41.13
2023-04-24T10:43:41.487Z,41.20
2023-04-24T10:46:08.887Z,41.06
2023-04-24T10:48:36.012Z,41.06
2023-04-24T10:51:03.340Z,41.17
2023-04-24T10:53:30.944Z,41.49
2023-04-24T10:55:59.551Z,41.01
2023-04-24T10:58:36.848Z,40.99
2023-04-24T11:01:04.268Z,41.29
2023-04-24T11:03:32.677Z,41.07
2023-04-24T11:06:01.205Z,40.96
2023-04-24T11:08:29.393Z,41.38
2023-04-24T11:10:58.823Z,40.98
2023-04-24T11:13:27.164Z,41.19
2023-04-24T11:16:03.263Z,41.30
2023-04-24T11:18:38.460Z,40.95
2023-04-24T11:21:12.056Z,41.21
2023-04-24T11:23:39.460Z,41.35
2023-04-24T11:26:16.196Z,41.22
2023-04-24T11:28:47.480Z,40.96
2023-04-24T11:31:24.138Z,40.98
2023-04-24T11:33:51.175Z,41.13
2023-04-24T11:36:18.123Z,41.09
2023-04-24T11:38:45.184Z,41.20
2023-04-24T11:41:12.930Z,41.00
2023-04-24T11:43:40.970Z,40.93
2023-04-24T11:46:07.963Z,40.79
2023-04-24T11:48:37.795Z,40.57
2023-04-24T11:51:04.923Z,40.85
2023-04-24T11:53:32.159Z,40.66
2023-04-24T11:56:03.733Z,40.89
2023-04-24T11:58:36.831Z,40.41
2023-04-24T12:01:04.009Z,40.43
2023-04-24T12:03:31.401Z,40.64
2023-04-24T12:06:09.376Z,40.59
2023-04-24T12:08:38.260Z,40.16
2023-04-24T12:11:09.417Z,40.16
2023-04-24T12:13:37.230Z,40.22
2023-04-24T12:16:05.887Z,40.37
2023-04-24T12:18:36.287Z,40.69
2023-04-24T12:21:13.249Z,40.22
2023-04-24T12:23:40.266Z,40.27
2023-04-24T12:26:07.560Z,39.97
2023-04-24T12:28:36.475Z,40.26
2023-04-24T12:31:03.877Z,39.98
2023-04-24T12:33:34.257Z,39.96
2023-04-24T12:36:01.466Z,39.91
2023-04-24T12:38:31.281Z,39.80
2023-04-24T12:41:06.648Z,39.81
2023-04-24T12:43:33.778Z,39.95
2023-04-24T12:46:00.830Z,39.63
2023-04-24T12:48:29.188Z,39.91
2023-04-24T12:50:57.961Z,39.73
2023-04-24T12:53:27.988Z,39.82
2023-04-24T12:55:55.171Z,39.77
2023-04-24T12:58:22.429Z,39.95
2023-04-24T13:00:49.723Z,39.52
2023-04-24T13:03:17.202Z,39.63
2023-04-24T13:05:45.220Z,39.42
2023-04-24T13:08:12.372Z,39.61
2023-04-24T13:10:39.697Z,39.23
2023-04-24T13:13:06.851Z,39.46
2023-04-24T13:15:34.530Z,39.42
2023-04-24T13:18:01.974Z,39.58
2023-04-24T13:20:29.236Z,39.25
2023-04-24T13:22:56.552Z,39.43
2023-04-24T13:25:25.001Z,38.98
2023-04-24T13:27:52.352Z,39.27
2023-04-24T13:30:19.604Z,38.90
2023-04-24T13:32:46.789Z,39.04
2023-04-24T13:35:14.384Z,38.83
2023-04-24T13:37:41.601Z,39.12
2023-04-24T13:40:09.466Z,39.20
2023-04-24T13:42:36.721Z,39.44
2023-04-24T13:45:17.783Z,39.14
2023-04-24T13:47:52.457Z,39.13
2023-04-24T13:50:20.188Z,39.45
2023-04-24T13:52:47.292Z,39.16
2023-04-24T13:55:14.430Z,39.70
2023-04-24T13:57:41.752Z,39.78
2023-04-24T14:00:11.958Z,39.55
2023-04-24T14:02:39.349Z,39.69
2023-04-24T14:05:07.950Z,39.36
2023-04-24T14:07:35.078Z,39.37
2023-04-24T14:10:02.156Z,39.42
2023-04-24T14:12:29.607Z,39.81
2023-04-24T14:14:56.692Z,39.80
2023-04-24T14:17:24.046Z,39.66
2023-04-24T14:19:53.288Z,39.48
2023-04-24T14:22:20.514Z,39.96
2023-04-24T14:24:47.961Z,39.83
2023-04-24T14:27:15.309Z,39.58
2023-04-24T14:29:42.363Z,39.60
2023-04-24T14:32:10.389Z,39.83
2023-04-24T14:34:37.716Z,39.94
2023-04-24T14:37:04.843Z,39.44
2023-04-24T14:39:32.548Z,39.53
2023-04-24T14:41:59.633Z,40.13
2023-04-24T14:44:26.722Z,40.09
2023-04-24T14:46:54.571Z,39.74
2023-04-24T14:49:21.907Z,39.83
2023-04-24T14:51:49.929Z,40.18
2023-04-24T14:54:17.133Z,40.27
2023-04-24T14:56:45.775Z,40.11
2023-04-24T14:59:12.999Z,39.94
2023-04-24T15:01:40.132Z,40.46
2023-04-24T15:04:07.847Z,40.55
2023-04-24T15:06:35.037Z,40.22
2023-04-24T15:09:02.172Z,40.53
2023-04-24T15:11:29.394Z,40.71
2023-04-24T15:13:57.224Z,40.40
2023-04-24T15:16:25.439Z,40.42
2023-04-24T15:18:52.707Z,40.73
2023-04-24T15:21:19.966Z,40.26
2023-04-24T15:23:47.395Z,40.64
2023-04-24T15:26:14.788Z,40.58
2023-04-24T15:28:42.766Z,40.26
2023-04-24T15:31:09.986Z,40.22
2023-04-24T15:33:37.410Z,40.32
2023-04-24T15:36:04.697Z,40.66
2023-04-24T15:38:32.088Z,40.85
2023-04-24T15:40:59.368Z,40.98
2023-04-24T15:43:26.666Z,40.85
2023-04-24T15:45:53.777Z,40.88
2023-04-24T15:48:21.775Z,40.85
2023-04-24T15:50:48.854Z,41.02
2023-04-24T15:53:22.700Z,41.12
2023-04-24T15:55:50.532Z,41.25
2023-04-24T15:58:17.729Z,41.52
2023-04-24T16:00:44.840Z,41.38
2023-04-24T16:03:12.235Z,41.45
2023-04-24T16:05:40.303Z,41.83
2023-04-24T16:08:07.547Z,41.54
2023-04-24T16:10:34.685Z,41.75
2023-04-24T16:13:04.018Z,41.44
2023-04-24T16:15:31.203Z,42.01
2023-04-24T16:17:59.043Z,41.98
2023-04-24T16:20:26.508Z,42.01
2023-04-24T16:22:53.760Z,42.17
2023-04-24T16:25:21.397Z,42.12
2023-04-24T16:27:49.315Z,42.07
2023-04-24T16:30:16.525Z,42.33
2023-04-24T16:32:43.634Z,42.02
2023-04-24T16:35:11.013Z,42.16
2023-04-24T16:37:38.334Z,42.13
2023-04-24T16:40:11.275Z,42.25
2023-04-24T16:42:38.613Z,42.39
2023-04-24T16:45:07.168Z,42.39
2023-04-24T16:47:34.444Z,42.35
2023-04-24T16:50:02.054Z,42.69
2023-04-24T16:52:29.204Z,42.77
2023-04-24T16:54:56.555Z,42.71
2023-04-24T16:57:24.171Z,42.58
2023-04-24T16:59:51.556Z,43.00
2023-04-24T17:02:18.765Z,43.00
2023-04-24T17:04:46.126Z,42.65
2023-04-24T17:07:14.188Z,42.99
2023-04-24T17:09:41.530Z,42.67
2023-04-24T17:12:08.873Z,43.03
2023-04-24T17:14:36.107Z,43.13
2023-04-24T17:17:03.697Z,42.96
2023-04-24T17:19:30.907Z,43.08
2023-04-24T17:21:58.786Z,43.01
2023-04-24T17:24:25.954Z,43.10
2023-04-24T17:26:54.452Z,42.92
2023-04-24T17:29:24.088Z,42.90
2023-04-24T17:31:52.496Z,43.41
2023-04-24T17:34:19.707Z,43.06
2023-04-24T17:36:47.317Z,43.08
2023-04-24T17:39:15.084Z,43.49
2023-04-24T17:41:43.123Z,43.53
2023-04-24T17:44:10.286Z,43.57
2023-04-24T17:46:37.758Z,43.28
2023-04-24T17:49:05.018Z,43.75
2023-04-24T17:51:33.231Z,43.49
2023-04-24T17:54:00.310Z,43.56
2023-04-24T17:56:27.428Z,43.49
2023-04-24T17:58:54.745Z,42.93
2023-04-24T18:01:22.473Z,42.93
2023-04-24T18:03:49.622Z,43.17
2023-04-24T18:06:18.187Z,42.82
2023-04-24T18:08:45.432Z,42.89
2023-04-24T18:11:12.820Z,42.88
2023-04-24T18:13:41.813Z,42.88
2023-04-24T18:16:09.239Z,42.95
2023-04-24T18:18:37.362Z,42.57
2023-04-24T18:21:04.600Z,42.58
2023-04-24T18:23:32.274Z,42.55
2023-04-24T18:25:59.336Z,42.79
2023-04-24T18:28:27.079Z,42.97
2023-04-24T18:30:54.195Z,42.77
2023-04-24T18:33:21.500Z,42.51
2023-04-24T18:35:48.753Z,42.56
2023-04-24T18:38:16.415Z,42.51
2023-04-24T18:40:43.836Z,42.56
2023-04-24T18:43:11.181Z,42.98
2023-04-24T18:45:38.285Z,42.86
2023-04-24T18:48:05.837Z,42.32
2023-04-24T18:50:33.597Z,42.05
2023-04-24T18:53:01.094Z,42.16
2023-04-24T18:55:28.119Z,42.21
2023-04-24T18:57:55.695Z,42.19
2023-04-24T19:00:23.150Z,41.59
2023-04-24T19:02:50.421Z,41.88
2023-04-24T19:05:18.100Z,41.48
2023-04-24T19:07:45.370Z,41.66
2023-04-24T19:10:13.794Z,41.41
2023-04-24T19:12:41.165Z,41.28
2023-04-24T19:15:12.113Z,41.56
2023-04-24T19:17:39.350Z,41.67
2023-04-24T19:20:07.499Z,41.44
2023-04-24T19:22:35.865Z,41.65
2023-04-24T19:27:47.235Z,41.70
2023-04-24T19:30:14.730Z,41.12
2023-04-24T19:32:41.889Z,41.21
2023-04-24T19:35:09.273Z,41.38
2023-04-24T19:37:36.561Z,41.23
2023-04-24T19:40:04.307Z,41.46
2023-04-24T19:42:43.045Z,41.25
2023-04-24T19:45:12.083Z,41.30
2023-04-24T19:47:39.552Z,41.20
2023-04-24T19:50:07.380Z,41.06
2023-04-24T19:52:35.185Z,41.14
2023-04-24T19:55:14.965Z,41.14
2023-04-24T19:57:43.533Z,40.96
2023-04-24T20:00:11.018Z,41.01
2023-04-24T20:02:38.320Z,40.74
2023-04-24T20:05:06.375Z,40.86
2023-04-24T20:07:33.775Z,40.41
2023-04-24T20:10:01.117Z,40.73
2023-04-24T20:12:28.618Z,40.39
2023-04-24T20:14:55.697Z,40.33
2023-04-24T20:17:22.857Z,40.51
2023-04-24T20:19:50.026Z,40.44
2023-04-24T20:22:17.304Z,40.32
2023-04-24T20:24:45.086Z,40.52
2023-04-24T20:27:13.644Z,40.53
2023-04-24T20:29:41.090Z,40.36
2023-04-24T20:32:08.304Z,40.38
2023-04-24T20:34:36.843Z,40.18
2023-04-24T20:37:04.666Z,40.29
2023-04-24T20:39:31.776Z,40.59
2023-04-24T20:41:59.367Z,40.55
2023-04-24T20:44:26.417Z,40.49
2023-04-24T20:46:53.686Z,40.77
2023-04-24T20:49:20.883Z,40.68
2023-04-24T20:51:48.485Z,40.71
2023-04-24T20:54:16.331Z,41.36
2023-04-24T20:56:44.003Z,41.03
2023-04-24T20:59:11.261Z,41.47
2023-04-24T21:01:38.446Z,40.95
2023-04-24T21:04:05.964Z,41.45
2023-04-24T21:06:33.213Z,41.64
2023-04-24T21:09:00.527Z,41.25
2023-04-24T21:11:27.841Z,41.48
2023-04-24T21:13:55.127Z,41.30
2023-04-24T21:16:22.444Z,41.35
2023-04-24T21:18:49.986Z,41.09
2023-04-24T21:21:17.322Z,41.59
2023-04-24T21:23:44.879Z,41.74
2023-04-24T21:26:11.973Z,41.62
2023-04-24T21:28:39.355Z,41.70
2023-04-24T21:31:06.465Z,41.60
2023-04-24T21:33:36.823Z,42.22
2023-04-24T21:36:04.091Z,42.20
2023-04-24T21:38:31.380Z,42.07
2023-04-24T21:40:58.550Z,42.01
2023-04-24T21:43:33.862Z,42.04
2023-04-24T21:46:13.524Z,41.93
2023-04-24T21:48:40.791Z,42.30
2023-04-24T21:51:08.136Z,42.64
2023-04-24T21:53:35.259Z,42.17
2023-04-24T21:56:02.552Z,42.51
2023-04-24T21:58:29.750Z,42.44
2023-04-24T22:00:56.909Z,42.90
2023-04-24T22:03:24.270Z,42.78
2023-04-24T22:05:51.820Z,43.04
2023-04-24T22:08:19.024Z,42.86
2023-04-24T22:10:46.631Z,43.45
2023-04-24T22:13:13.673Z,43.18
2023-04-24T22:15:41.637Z,43.06
2023-04-24T22:18:09.920Z,43.30
2023-04-24T22:20:38.074Z,43.47
2023-04-24T22:23:05.351Z,44.03
2023-04-24T22:25:32.716Z,43.81
2023-04-24T22:28:00.300Z,44.21
2023-04-24T22:30:27.403Z,44.12
2023-04-24T22:32:54.544Z,44.28
2023-04-24T22:35:21.855Z,44.01
2023-04-24T22:37:54.343Z,44.31
2023-04-24T22:40:21.583Z,44.05
2023-04-24T22:42:48.777Z,44.24
2023-04-24T22:45:16.312Z,43.75
2023-04-24T22:47:43.452Z,43.84
2023-04-24T22:50:11.045Z,43.63
2023-04-24T22:52:38.383Z,44.06
2023-04-24T22:55:05.671Z,43.96
2023-04-24T22:57:33.469Z,43.66
2023-04-24T23:00:00.830Z,43.50
2023-04-24T23:02:29.443Z,43.77
2023-04-24T23:04:57.538Z,43.78
2023-04-24T23:07:24.654Z,43.71
2023-04-24T23:09:51.818Z,44.57
2023-04-24T23:12:18.947Z,44.27
2023-04-24T23:14:46.446Z,43.86
2023-04-24T23:17:13.906Z,43.87
2023-04-24T23:19:41.086Z,44.14
2023-04-24T23:22:08.314Z,44.11
2023-04-24T23:24:36.347Z,43.75
2023-04-24T23:27:03.699Z,43.64
2023-04-24T23:29:31.199Z,43.93
2023-04-24T23:31:58.572Z,44.10
2023-04-24T23:34:25.731Z,44.20
2023-04-24T23:36:52.960Z,43.90
2023-04-24T23:39:20.111Z,43.77
2023-04-24T23:41:47.436Z,43.69
2023-04-24T23:44:14.553Z,43.62
2023-04-24T23:46:42.234Z,43.62
2023-04-24T23:49:09.919Z,44.20
2023-04-24T23:51:37.496Z,44.30
2023-04-24T23:54:04.881Z,44.02
2023-04-24T23:56:32.178Z,44.36
2023-04-24T23:58:59.534Z,44.64
